sensor_id;sensor_type;location;lat;lon;timestamp;P1;durP1;ratioP1;P2;durP2;ratioP2
56285;SDS011;42191;47.562;9.686;2023-02-26T00:02:25;39.63;;;37.13;;
56285;SDS011;42191;47.562;9.686;2023-02-26T00:04:51;40.60;;;38.10;;
56285;SDS011;42191;47.562;9.686;2023-02-26T00:07:17;39.47;;;36.88;;
56285;SDS011;42191;47.562;9.686;2023-02-26T00:09:43;41.60;;;39.10;;
56285;SDS011;42191;47.562;9.686;2023-02-26T00:12:10;40.50;;;38.00;;
56285;SDS011;42191;47.562;9.686;2023-02-26T00:14:38;40.80;;;38.30;;
56285;SDS011;42191;47.562;9.686;2023-02-26T00:17:13;42.25;;;39.55;;
56285;SDS011;42191;47.562;9.686;2023-02-26T00:19:48;41.17;;;38.67;;
56285;SDS011;42191;47.562;9.686;2023-02-26T00:22:14;40.13;;;37.72;;
56285;SDS011;42191;47.562;9.686;2023-02-26T00:24:41;40.88;;;38.38;;
56285;SDS011;42191;47.562;9.686;2023-02-26T00:27:08;41.08;;;38.58;;
56285;SDS011;42191;47.562;9.686;2023-02-26T00:29:36;41.75;;;39.22;;
56285;SDS011;42191;47.562;9.686;2023-02-26T00:32:02;39.40;;;37.03;;
56285;SDS011;42191;47.562;9.686;2023-02-26T00:34:29;41.33;;;38.80;;
56285;SDS011;42191;47.562;9.686;2023-02-26T00:42:29;41.25;;;38.70;;
56285;SDS011;42191;47.562;9.686;2023-02-26T00:44:56;42.45;;;39.75;;
56285;SDS011;42191;47.562;9.686;2023-02-26T00:55:30;41.33;;;38.83;;
56285;SDS011;42191;47.562;9.686;2023-02-26T00:57:56;42.90;;;40.25;;
56285;SDS011;42191;47.562;9.686;2023-02-26T01:00:23;42.30;;;39.70;;
56285;SDS011;42191;47.562;9.686;2023-02-26T01:02:49;42.58;;;40.05;;
56285;SDS011;42191;47.562;9.686;2023-02-26T01:05:16;41.78;;;39.28;;
56285;SDS011;42191;47.562;9.686;2023-02-26T01:07:44;41.17;;;38.67;;
56285;SDS011;42191;47.562;9.686;2023-02-26T01:10:12;40.42;;;37.92;;
56285;SDS011;42191;47.562;9.686;2023-02-26T01:12:38;41.65;;;39.05;;
56285;SDS011;42191;47.562;9.686;2023-02-26T01:15:06;42.08;;;39.47;;
56285;SDS011;42191;47.562;9.686;2023-02-26T01:17:35;39.60;;;37.20;;
56285;SDS011;42191;47.562;9.686;2023-02-26T01:20:15;40.88;;;38.38;;
56285;SDS011;42191;47.562;9.686;2023-02-26T01:25:26;40.65;;;38.15;;
56285;SDS011;42191;47.562;9.686;2023-02-26T01:27:53;41.85;;;39.35;;
56285;SDS011;42191;47.562;9.686;2023-02-26T01:30:23;40.28;;;37.85;;
56285;SDS011;42191;47.562;9.686;2023-02-26T01:32:56;42.63;;;39.95;;
56285;SDS011;42191;47.562;9.686;2023-02-26T01:35:44;41.63;;;39.03;;
56285;SDS011;42191;47.562;9.686;2023-02-26T01:41:11;41.78;;;39.17;;
56285;SDS011;42191;47.562;9.686;2023-02-26T01:46:36;41.55;;;39.05;;
56285;SDS011;42191;47.562;9.686;2023-02-26T01:49:21;40.10;;;37.67;;
56285;SDS011;42191;47.562;9.686;2023-02-26T01:51:57;41.83;;;39.13;;
56285;SDS011;42191;47.562;9.686;2023-02-26T01:54:27;40.78;;;38.30;;
56285;SDS011;42191;47.562;9.686;2023-02-26T01:59:31;41.78;;;39.28;;
56285;SDS011;42191;47.562;9.686;2023-02-26T02:01:59;41.13;;;38.38;;
56285;SDS011;42191;47.562;9.686;2023-02-26T02:04:28;41.45;;;38.75;;
56285;SDS011;42191;47.562;9.686;2023-02-26T02:06:56;40.53;;;38.03;;
56285;SDS011;42191;47.562;9.686;2023-02-26T02:09:23;42.50;;;39.90;;
56285;SDS011;42191;47.562;9.686;2023-02-26T02:14:17;40.83;;;38.30;;
56285;SDS011;42191;47.562;9.686;2023-02-26T02:19:50;40.03;;;37.63;;
56285;SDS011;42191;47.562;9.686;2023-02-26T02:28:20;42.20;;;39.63;;
56285;SDS011;42191;47.562;9.686;2023-02-26T02:31:10;42.67;;;39.90;;
56285;SDS011;42191;47.562;9.686;2023-02-26T02:36:44;42.45;;;39.85;;
56285;SDS011;42191;47.562;9.686;2023-02-26T02:39:25;42.10;;;39.50;;
56285;SDS011;42191;47.562;9.686;2023-02-26T02:41:59;41.80;;;39.30;;
56285;SDS011;42191;47.562;9.686;2023-02-26T02:44:31;41.78;;;39.17;;
56285;SDS011;42191;47.562;9.686;2023-02-26T02:47:01;40.22;;;37.75;;
56285;SDS011;42191;47.562;9.686;2023-02-26T02:49:32;40.53;;;38.13;;
56285;SDS011;42191;47.562;9.686;2023-02-26T02:52:06;41.15;;;38.65;;
56285;SDS011;42191;47.562;9.686;2023-02-26T02:58:07;41.25;;;38.80;;
56285;SDS011;42191;47.562;9.686;2023-02-26T03:00:04;42.33;;;39.83;;
56285;SDS011;42191;47.562;9.686;2023-02-26T03:05:38;41.47;;;38.97;;
56285;SDS011;42191;47.562;9.686;2023-02-26T03:08:13;41.42;;;38.92;;
56285;SDS011;42191;47.562;9.686;2023-02-26T03:10:42;41.28;;;38.78;;
56285;SDS011;42191;47.562;9.686;2023-02-26T03:13:22;42.30;;;39.78;;
56285;SDS011;42191;47.562;9.686;2023-02-26T03:15:55;41.03;;;38.53;;
56285;SDS011;42191;47.562;9.686;2023-02-26T03:24:15;40.67;;;38.28;;
56285;SDS011;42191;47.562;9.686;2023-02-26T03:26:53;39.92;;;37.45;;
56285;SDS011;42191;47.562;9.686;2023-02-26T03:29:37;40.03;;;37.63;;
56285;SDS011;42191;47.562;9.686;2023-02-26T03:32:24;41.65;;;39.15;;
56285;SDS011;42191;47.562;9.686;2023-02-26T03:35:04;41.05;;;38.60;;
56285;SDS011;42191;47.562;9.686;2023-02-26T03:37:37;40.97;;;38.50;;
56285;SDS011;42191;47.562;9.686;2023-02-26T03:40:09;41.53;;;39.03;;
56285;SDS011;42191;47.562;9.686;2023-02-26T03:42:48;41.55;;;39.05;;
56285;SDS011;42191;47.562;9.686;2023-02-26T03:45:20;42.60;;;40.00;;
56285;SDS011;42191;47.562;9.686;2023-02-26T03:50:24;44.17;;;41.58;;
56285;SDS011;42191;47.562;9.686;2023-02-26T03:53:07;41.92;;;39.42;;
56285;SDS011;42191;47.562;9.686;2023-02-26T03:55:56;40.50;;;38.10;;
56285;SDS011;42191;47.562;9.686;2023-02-26T03:58:35;40.70;;;38.30;;
56285;SDS011;42191;47.562;9.686;2023-02-26T04:01:07;41.17;;;38.58;;
56285;SDS011;42191;47.562;9.686;2023-02-26T04:03:48;41.30;;;38.80;;
56285;SDS011;42191;47.562;9.686;2023-02-26T04:06:21;41.88;;;39.35;;
56285;SDS011;42191;47.562;9.686;2023-02-26T04:08:48;42.10;;;39.50;;
56285;SDS011;42191;47.562;9.686;2023-02-26T04:11:16;41.17;;;38.63;;
56285;SDS011;42191;47.562;9.686;2023-02-26T04:13:43;41.85;;;39.25;;
56285;SDS011;42191;47.562;9.686;2023-02-26T04:16:10;43.47;;;40.78;;
56285;SDS011;42191;47.562;9.686;2023-02-26T04:18:37;43.63;;;40.92;;
56285;SDS011;42191;47.562;9.686;2023-02-26T04:21:03;42.83;;;40.13;;
56285;SDS011;42191;47.562;9.686;2023-02-26T04:23:29;41.90;;;39.35;;
56285;SDS011;42191;47.562;9.686;2023-02-26T04:25:55;40.88;;;38.38;;
56285;SDS011;42191;47.562;9.686;2023-02-26T04:28:22;40.78;;;38.28;;
56285;SDS011;42191;47.562;9.686;2023-02-26T04:30:48;40.83;;;38.40;;
56285;SDS011;42191;47.562;9.686;2023-02-26T04:33:14;42.25;;;39.55;;
56285;SDS011;42191;47.562;9.686;2023-02-26T04:35:40;42.53;;;39.90;;
56285;SDS011;42191;47.562;9.686;2023-02-26T04:38:07;42.08;;;39.47;;
56285;SDS011;42191;47.562;9.686;2023-02-26T04:40:33;39.85;;;37.45;;
56285;SDS011;42191;47.562;9.686;2023-02-26T04:42:59;41.13;;;38.63;;
56285;SDS011;42191;47.562;9.686;2023-02-26T04:45:25;42.65;;;40.05;;
56285;SDS011;42191;47.562;9.686;2023-02-26T04:47:51;42.13;;;39.55;;
56285;SDS011;42191;47.562;9.686;2023-02-26T04:50:18;42.30;;;39.75;;
56285;SDS011;42191;47.562;9.686;2023-02-26T04:52:44;43.35;;;40.55;;
56285;SDS011;42191;47.562;9.686;2023-02-26T04:55:10;42.17;;;39.65;;
56285;SDS011;42191;47.562;9.686;2023-02-26T04:57:36;39.10;;;36.63;;
56285;SDS011;42191;47.562;9.686;2023-02-26T05:00:02;41.92;;;39.33;;
56285;SDS011;42191;47.562;9.686;2023-02-26T05:02:32;41.90;;;39.40;;
56285;SDS011;42191;47.562;9.686;2023-02-26T05:04:58;41.10;;;38.60;;
56285;SDS011;42191;47.562;9.686;2023-02-26T05:07:24;42.30;;;39.50;;
56285;SDS011;42191;47.562;9.686;2023-02-26T05:09:50;41.30;;;38.70;;
56285;SDS011;42191;47.562;9.686;2023-02-26T05:12:16;41.83;;;39.22;;
56285;SDS011;42191;47.562;9.686;2023-02-26T05:14:43;40.80;;;38.40;;
56285;SDS011;42191;47.562;9.686;2023-02-26T05:17:09;42.10;;;39.60;;
56285;SDS011;42191;47.562;9.686;2023-02-26T05:19:35;43.15;;;40.33;;
56285;SDS011;42191;47.562;9.686;2023-02-26T05:22:01;42.88;;;40.17;;
56285;SDS011;42191;47.562;9.686;2023-02-26T05:24:27;41.95;;;39.45;;
56285;SDS011;42191;47.562;9.686;2023-02-26T05:26:53;40.20;;;37.80;;
56285;SDS011;42191;47.562;9.686;2023-02-26T05:29:19;41.38;;;38.88;;
56285;SDS011;42191;47.562;9.686;2023-02-26T05:31:45;42.03;;;39.42;;
56285;SDS011;42191;47.562;9.686;2023-02-26T05:34:12;42.67;;;39.97;;
56285;SDS011;42191;47.562;9.686;2023-02-26T05:36:38;43.47;;;40.88;;
56285;SDS011;42191;47.562;9.686;2023-02-26T05:39:04;42.95;;;40.25;;
56285;SDS011;42191;47.562;9.686;2023-02-26T05:41:30;40.90;;;38.50;;
56285;SDS011;42191;47.562;9.686;2023-02-26T05:43:56;41.92;;;39.33;;
56285;SDS011;42191;47.562;9.686;2023-02-26T05:46:23;41.70;;;39.20;;
56285;SDS011;42191;47.562;9.686;2023-02-26T05:48:49;43.35;;;40.50;;
56285;SDS011;42191;47.562;9.686;2023-02-26T05:51:15;42.60;;;40.00;;
56285;SDS011;42191;47.562;9.686;2023-02-26T05:53:41;41.25;;;38.72;;
56285;SDS011;42191;47.562;9.686;2023-02-26T05:56:07;43.80;;;41.15;;
56285;SDS011;42191;47.562;9.686;2023-02-26T05:58:33;43.05;;;40.45;;
56285;SDS011;42191;47.562;9.686;2023-02-26T06:00:59;40.97;;;38.47;;
56285;SDS011;42191;47.562;9.686;2023-02-26T06:03:25;42.20;;;39.58;;
56285;SDS011;42191;47.562;9.686;2023-02-26T06:05:52;42.33;;;39.72;;
56285;SDS011;42191;47.562;9.686;2023-02-26T06:08:18;42.50;;;39.80;;
56285;SDS011;42191;47.562;9.686;2023-02-26T06:10:44;42.25;;;39.50;;
56285;SDS011;42191;47.562;9.686;2023-02-26T06:13:10;43.15;;;40.58;;
56285;SDS011;42191;47.562;9.686;2023-02-26T06:15:36;43.08;;;40.47;;
56285;SDS011;42191;47.562;9.686;2023-02-26T06:18:02;41.78;;;39.20;;
56285;SDS011;42191;47.562;9.686;2023-02-26T06:20:29;43.45;;;40.75;;
56285;SDS011;42191;47.562;9.686;2023-02-26T06:22:55;41.90;;;39.33;;
56285;SDS011;42191;47.562;9.686;2023-02-26T06:25:21;43.65;;;41.05;;
56285;SDS011;42191;47.562;9.686;2023-02-26T06:27:47;43.60;;;40.90;;
56285;SDS011;42191;47.562;9.686;2023-02-26T06:30:13;42.45;;;39.85;;
56285;SDS011;42191;47.562;9.686;2023-02-26T06:32:39;43.92;;;41.17;;
56285;SDS011;42191;47.562;9.686;2023-02-26T06:35:06;43.42;;;40.72;;
56285;SDS011;42191;47.562;9.686;2023-02-26T06:37:32;44.72;;;41.80;;
56285;SDS011;42191;47.562;9.686;2023-02-26T06:39:58;42.63;;;39.97;;
56285;SDS011;42191;47.562;9.686;2023-02-26T06:42:24;43.33;;;40.70;;
56285;SDS011;42191;47.562;9.686;2023-02-26T06:44:51;43.13;;;40.53;;
56285;SDS011;42191;47.562;9.686;2023-02-26T06:47:17;44.00;;;41.30;;
56285;SDS011;42191;47.562;9.686;2023-02-26T06:49:43;43.70;;;41.00;;
56285;SDS011;42191;47.562;9.686;2023-02-26T06:52:09;41.03;;;38.53;;
56285;SDS011;42191;47.562;9.686;2023-02-26T06:54:35;42.25;;;39.67;;
56285;SDS011;42191;47.562;9.686;2023-02-26T06:57:01;42.30;;;39.70;;
56285;SDS011;42191;47.562;9.686;2023-02-26T06:59:27;42.15;;;39.60;;
56285;SDS011;42191;47.562;9.686;2023-02-26T07:01:54;41.63;;;39.03;;
56285;SDS011;42191;47.562;9.686;2023-02-26T07:04:21;42.75;;;40.05;;
56285;SDS011;42191;47.562;9.686;2023-02-26T07:06:47;39.75;;;37.33;;
56285;SDS011;42191;47.562;9.686;2023-02-26T07:09:13;41.33;;;38.88;;
56285;SDS011;42191;47.562;9.686;2023-02-26T07:11:39;41.25;;;38.75;;
56285;SDS011;42191;47.562;9.686;2023-02-26T07:14:05;42.38;;;39.88;;
56285;SDS011;42191;47.562;9.686;2023-02-26T07:16:32;41.83;;;39.13;;
56285;SDS011;42191;47.562;9.686;2023-02-26T07:18:58;42.30;;;39.70;;
56285;SDS011;42191;47.562;9.686;2023-02-26T07:21:24;39.58;;;37.08;;
56285;SDS011;42191;47.562;9.686;2023-02-26T07:23:50;43.40;;;40.70;;
56285;SDS011;42191;47.562;9.686;2023-02-26T07:26:16;40.90;;;38.45;;
56285;SDS011;42191;47.562;9.686;2023-02-26T07:28:42;42.63;;;40.03;;
56285;SDS011;42191;47.562;9.686;2023-02-26T07:31:08;41.97;;;39.30;;
56285;SDS011;42191;47.562;9.686;2023-02-26T07:33:34;42.50;;;39.72;;
56285;SDS011;42191;47.562;9.686;2023-02-26T07:36:02;40.97;;;38.47;;
56285;SDS011;42191;47.562;9.686;2023-02-26T07:38:29;40.85;;;38.35;;
56285;SDS011;42191;47.562;9.686;2023-02-26T07:40:55;42.70;;;40.10;;
56285;SDS011;42191;47.562;9.686;2023-02-26T07:43:22;41.85;;;39.25;;
56285;SDS011;42191;47.562;9.686;2023-02-26T07:45:49;42.10;;;39.60;;
56285;SDS011;42191;47.562;9.686;2023-02-26T07:48:16;41.40;;;38.80;;
56285;SDS011;42191;47.562;9.686;2023-02-26T07:50:42;42.35;;;39.78;;
56285;SDS011;42191;47.562;9.686;2023-02-26T07:53:08;43.20;;;39.95;;
56285;SDS011;42191;47.562;9.686;2023-02-26T07:55:34;42.60;;;39.88;;
56285;SDS011;42191;47.562;9.686;2023-02-26T07:58:01;42.92;;;40.22;;
56285;SDS011;42191;47.562;9.686;2023-02-26T08:00:27;39.20;;;36.80;;
56285;SDS011;42191;47.562;9.686;2023-02-26T08:02:53;41.72;;;39.03;;
56285;SDS011;42191;47.562;9.686;2023-02-26T08:05:19;42.00;;;39.40;;
56285;SDS011;42191;47.562;9.686;2023-02-26T08:07:45;43.50;;;40.60;;
56285;SDS011;42191;47.562;9.686;2023-02-26T08:10:11;43.22;;;40.63;;
56285;SDS011;42191;47.562;9.686;2023-02-26T08:12:37;44.10;;;41.10;;
56285;SDS011;42191;47.562;9.686;2023-02-26T08:15:03;41.03;;;38.47;;
56285;SDS011;42191;47.562;9.686;2023-02-26T08:17:30;41.58;;;39.00;;
56285;SDS011;42191;47.562;9.686;2023-02-26T08:19:56;41.88;;;39.38;;
56285;SDS011;42191;47.562;9.686;2023-02-26T08:22:22;41.83;;;39.22;;
56285;SDS011;42191;47.562;9.686;2023-02-26T08:24:49;42.42;;;39.83;;
56285;SDS011;42191;47.562;9.686;2023-02-26T08:27:15;42.78;;;40.13;;
56285;SDS011;42191;47.562;9.686;2023-02-26T08:29:41;43.53;;;40.83;;
56285;SDS011;42191;47.562;9.686;2023-02-26T08:32:10;44.05;;;41.15;;
56285;SDS011;42191;47.562;9.686;2023-02-26T08:34:37;43.00;;;40.20;;
56285;SDS011;42191;47.562;9.686;2023-02-26T08:37:03;39.90;;;37.47;;
56285;SDS011;42191;47.562;9.686;2023-02-26T08:39:29;42.30;;;39.80;;
56285;SDS011;42191;47.562;9.686;2023-02-26T08:41:59;41.67;;;39.17;;
56285;SDS011;42191;47.562;9.686;2023-02-26T08:44:25;40.55;;;37.97;;
56285;SDS011;42191;47.562;9.686;2023-02-26T08:46:51;41.22;;;38.70;;
56285;SDS011;42191;47.562;9.686;2023-02-26T08:49:17;40.40;;;37.95;;
56285;SDS011;42191;47.562;9.686;2023-02-26T08:51:43;41.05;;;38.53;;
56285;SDS011;42191;47.562;9.686;2023-02-26T08:54:09;39.33;;;36.92;;
56285;SDS011;42191;47.562;9.686;2023-02-26T08:56:35;41.63;;;39.00;;
56285;SDS011;42191;47.562;9.686;2023-02-26T08:59:01;41.47;;;38.88;;
56285;SDS011;42191;47.562;9.686;2023-02-26T09:01:27;41.17;;;38.60;;
56285;SDS011;42191;47.562;9.686;2023-02-26T09:03:53;41.67;;;39.17;;
56285;SDS011;42191;47.562;9.686;2023-02-26T09:06:19;40.78;;;38.28;;
56285;SDS011;42191;47.562;9.686;2023-02-26T09:08:46;40.47;;;38.03;;
56285;SDS011;42191;47.562;9.686;2023-02-26T09:11:13;41.38;;;38.85;;
56285;SDS011;42191;47.562;9.686;2023-02-26T09:13:39;43.15;;;40.55;;
56285;SDS011;42191;47.562;9.686;2023-02-26T09:16:06;42.55;;;39.95;;
56285;SDS011;42191;47.562;9.686;2023-02-26T09:18:32;42.72;;;40.03;;
56285;SDS011;42191;47.562;9.686;2023-02-26T09:20:59;41.97;;;39.28;;
56285;SDS011;42191;47.562;9.686;2023-02-26T09:23:25;40.13;;;37.65;;
56285;SDS011;42191;47.562;9.686;2023-02-26T09:25:52;42.45;;;39.85;;
56285;SDS011;42191;47.562;9.686;2023-02-26T09:28:19;40.30;;;37.90;;
56285;SDS011;42191;47.562;9.686;2023-02-26T09:30:46;41.55;;;39.05;;
56285;SDS011;42191;47.562;9.686;2023-02-26T09:33:15;42.50;;;39.90;;
56285;SDS011;42191;47.562;9.686;2023-02-26T09:35:41;41.95;;;39.35;;
56285;SDS011;42191;47.562;9.686;2023-02-26T09:38:07;42.17;;;39.63;;
56285;SDS011;42191;47.562;9.686;2023-02-26T09:43:53;42.35;;;39.75;;
56285;SDS011;42191;47.562;9.686;2023-02-26T09:51:37;38.92;;;36.55;;
56285;SDS011;42191;47.562;9.686;2023-02-26T09:54:15;44.17;;;41.47;;
56285;SDS011;42191;47.562;9.686;2023-02-26T09:56:47;41.50;;;39.00;;
56285;SDS011;42191;47.562;9.686;2023-02-26T09:59:16;42.25;;;39.53;;
56285;SDS011;42191;47.562;9.686;2023-02-26T10:12:24;43.50;;;40.80;;
56285;SDS011;42191;47.562;9.686;2023-02-26T10:14:59;41.92;;;39.42;;
56285;SDS011;42191;47.562;9.686;2023-02-26T10:28:43;41.65;;;39.05;;
56285;SDS011;42191;47.562;9.686;2023-02-26T10:31:41;43.00;;;40.30;;
56285;SDS011;42191;47.562;9.686;2023-02-26T10:34:32;41.58;;;38.97;;
56285;SDS011;42191;47.562;9.686;2023-02-26T10:37:16;42.13;;;39.45;;
56285;SDS011;42191;47.562;9.686;2023-02-26T10:42:25;41.50;;;38.80;;
56285;SDS011;42191;47.562;9.686;2023-02-26T10:48:03;41.85;;;39.35;;
56285;SDS011;42191;47.562;9.686;2023-02-26T10:50:35;43.15;;;40.35;;
56285;SDS011;42191;47.562;9.686;2023-02-26T10:53:08;42.28;;;39.75;;
56285;SDS011;42191;47.562;9.686;2023-02-26T10:55:58;39.88;;;37.47;;
56285;SDS011;42191;47.562;9.686;2023-02-26T10:58:39;42.90;;;40.28;;
56285;SDS011;42191;47.562;9.686;2023-02-26T11:01:13;41.85;;;39.35;;
56285;SDS011;42191;47.562;9.686;2023-02-26T11:03:43;41.60;;;38.80;;
56285;SDS011;42191;47.562;9.686;2023-02-26T11:06:19;43.35;;;40.75;;
56285;SDS011;42191;47.562;9.686;2023-02-26T11:08:50;41.00;;;38.47;;
56285;SDS011;42191;47.562;9.686;2023-02-26T11:14:25;41.13;;;38.65;;
56285;SDS011;42191;47.562;9.686;2023-02-26T11:16:54;40.88;;;38.40;;
56285;SDS011;42191;47.562;9.686;2023-02-26T11:19:30;40.22;;;37.83;;
56285;SDS011;42191;47.562;9.686;2023-02-26T11:22:00;39.03;;;36.63;;
56285;SDS011;42191;47.562;9.686;2023-02-26T11:27:03;40.88;;;38.47;;
56285;SDS011;42191;47.562;9.686;2023-02-26T11:29:35;40.72;;;38.22;;
56285;SDS011;42191;47.562;9.686;2023-02-26T11:32:03;40.70;;;38.30;;
56285;SDS011;42191;47.562;9.686;2023-02-26T11:34:30;40.15;;;37.65;;
56285;SDS011;42191;47.562;9.686;2023-02-26T11:36:56;40.22;;;37.83;;
56285;SDS011;42191;47.562;9.686;2023-02-26T11:39:25;40.10;;;37.70;;
56285;SDS011;42191;47.562;9.686;2023-02-26T11:41:55;38.92;;;36.60;;
56285;SDS011;42191;47.562;9.686;2023-02-26T11:44:31;40.00;;;37.63;;
56285;SDS011;42191;47.562;9.686;2023-02-26T11:47:04;41.83;;;39.22;;
56285;SDS011;42191;47.562;9.686;2023-02-26T11:49:35;39.00;;;36.60;;
56285;SDS011;42191;47.562;9.686;2023-02-26T11:54:38;36.95;;;34.75;;
56285;SDS011;42191;47.562;9.686;2023-02-26T11:57:06;40.13;;;37.53;;
56285;SDS011;42191;47.562;9.686;2023-02-26T11:59:39;38.47;;;36.17;;
56285;SDS011;42191;47.562;9.686;2023-02-26T12:02:10;39.50;;;37.10;;
56285;SDS011;42191;47.562;9.686;2023-02-26T12:04:38;36.22;;;34.10;;
56285;SDS011;42191;47.562;9.686;2023-02-26T12:07:10;37.88;;;35.60;;
56285;SDS011;42191;47.562;9.686;2023-02-26T12:09:39;38.53;;;36.22;;
56285;SDS011;42191;47.562;9.686;2023-02-26T12:17:34;36.58;;;34.38;;
56285;SDS011;42191;47.562;9.686;2023-02-26T12:20:12;39.15;;;36.75;;
56285;SDS011;42191;47.562;9.686;2023-02-26T12:31:59;37.72;;;35.42;;
56285;SDS011;42191;47.562;9.686;2023-02-26T12:40:10;39.60;;;37.20;;
56285;SDS011;42191;47.562;9.686;2023-02-26T12:45:35;39.78;;;37.30;;
56285;SDS011;42191;47.562;9.686;2023-02-26T12:48:32;40.13;;;37.72;;
56285;SDS011;42191;47.562;9.686;2023-02-26T12:51:18;40.20;;;37.80;;
56285;SDS011;42191;47.562;9.686;2023-02-26T12:56:44;40.05;;;37.65;;
56285;SDS011;42191;47.562;9.686;2023-02-26T12:59:52;40.45;;;38.03;;
56285;SDS011;42191;47.562;9.686;2023-02-26T13:08:31;38.15;;;35.85;;
56285;SDS011;42191;47.562;9.686;2023-02-26T13:17:15;39.38;;;36.95;;
56285;SDS011;42191;47.562;9.686;2023-02-26T13:19:48;39.92;;;37.53;;
56285;SDS011;42191;47.562;9.686;2023-02-26T13:22:41;38.58;;;36.22;;
56285;SDS011;42191;47.562;9.686;2023-02-26T13:25:16;38.25;;;35.95;;
56285;SDS011;42191;47.562;9.686;2023-02-26T13:27:56;37.97;;;35.67;;
56285;SDS011;42191;47.562;9.686;2023-02-26T13:32:59;37.30;;;35.10;;
56285;SDS011;42191;47.562;9.686;2023-02-26T13:35:28;38.58;;;36.28;;
56285;SDS011;42191;47.562;9.686;2023-02-26T13:37:59;37.97;;;35.75;;
56285;SDS011;42191;47.562;9.686;2023-02-26T13:43:35;38.80;;;36.50;;
56285;SDS011;42191;47.562;9.686;2023-02-26T13:48:55;37.90;;;35.65;;
56285;SDS011;42191;47.562;9.686;2023-02-26T13:51:33;41.35;;;38.85;;
56285;SDS011;42191;47.562;9.686;2023-02-26T13:54:06;38.15;;;35.75;;
56285;SDS011;42191;47.562;9.686;2023-02-26T14:01:57;38.10;;;35.72;;
56285;SDS011;42191;47.562;9.686;2023-02-26T14:04:28;36.75;;;34.55;;
56285;SDS011;42191;47.562;9.686;2023-02-26T14:07:03;36.83;;;34.63;;
56285;SDS011;42191;47.562;9.686;2023-02-26T14:12:24;35.97;;;33.88;;
56285;SDS011;42191;47.562;9.686;2023-02-26T14:15:26;36.85;;;34.65;;
56285;SDS011;42191;47.562;9.686;2023-02-26T14:18:02;36.72;;;34.42;;
56285;SDS011;42191;47.562;9.686;2023-02-26T14:20:41;36.47;;;34.35;;
56285;SDS011;42191;47.562;9.686;2023-02-26T14:28:29;37.28;;;35.08;;
56285;SDS011;42191;47.562;9.686;2023-02-26T14:33:31;36.33;;;34.05;;
56285;SDS011;42191;47.562;9.686;2023-02-26T14:36:30;37.65;;;35.40;;
56285;SDS011;42191;47.562;9.686;2023-02-26T14:39:05;36.85;;;34.63;;
56285;SDS011;42191;47.562;9.686;2023-02-26T14:41:38;35.63;;;33.53;;
56285;SDS011;42191;47.562;9.686;2023-02-26T14:46:45;36.60;;;34.40;;
56285;SDS011;42191;47.562;9.686;2023-02-26T14:49:19;36.45;;;34.30;;
56285;SDS011;42191;47.562;9.686;2023-02-26T14:54:33;33.75;;;31.75;;
56285;SDS011;42191;47.562;9.686;2023-02-26T14:57:19;35.92;;;33.80;;
56285;SDS011;42191;47.562;9.686;2023-02-26T15:09:15;35.55;;;33.35;;
56285;SDS011;42191;47.562;9.686;2023-02-26T15:17:33;36.33;;;34.17;;
56285;SDS011;42191;47.562;9.686;2023-02-26T15:25:37;35.72;;;33.58;;
56285;SDS011;42191;47.562;9.686;2023-02-26T15:28:06;36.25;;;34.15;;
56285;SDS011;42191;47.562;9.686;2023-02-26T15:30:43;35.38;;;33.28;;
56285;SDS011;42191;47.562;9.686;2023-02-26T15:33:13;35.80;;;33.70;;
56285;SDS011;42191;47.562;9.686;2023-02-26T15:35:42;35.08;;;32.97;;
56285;SDS011;42191;47.562;9.686;2023-02-26T15:38:09;35.90;;;33.70;;
56285;SDS011;42191;47.562;9.686;2023-02-26T15:40:36;38.05;;;35.75;;
56285;SDS011;42191;47.562;9.686;2023-02-26T15:43:02;36.13;;;33.92;;
56285;SDS011;42191;47.562;9.686;2023-02-26T15:46:05;36.80;;;34.60;;
56285;SDS011;42191;47.562;9.686;2023-02-26T15:48:28;36.08;;;33.88;;
56285;SDS011;42191;47.562;9.686;2023-02-26T15:51:01;37.40;;;35.20;;
56285;SDS011;42191;47.562;9.686;2023-02-26T15:53:32;36.92;;;34.72;;
56285;SDS011;42191;47.562;9.686;2023-02-26T15:55:59;36.17;;;33.97;;
56285;SDS011;42191;47.562;9.686;2023-02-26T15:58:42;36.63;;;34.42;;
56285;SDS011;42191;47.562;9.686;2023-02-26T16:01:17;36.20;;;34.00;;
56285;SDS011;42191;47.562;9.686;2023-02-26T16:03:46;33.65;;;31.60;;
56285;SDS011;42191;47.562;9.686;2023-02-26T16:06:15;35.10;;;33.00;;
56285;SDS011;42191;47.562;9.686;2023-02-26T16:09:06;36.53;;;34.38;;
56285;SDS011;42191;47.562;9.686;2023-02-26T16:11:39;35.83;;;33.72;;
56285;SDS011;42191;47.562;9.686;2023-02-26T16:14:09;35.33;;;33.22;;
56285;SDS011;42191;47.562;9.686;2023-02-26T16:16:44;36.38;;;34.22;;
56285;SDS011;42191;47.562;9.686;2023-02-26T16:19:41;35.83;;;33.63;;
56285;SDS011;42191;47.562;9.686;2023-02-26T16:22:12;36.63;;;34.42;;
56285;SDS011;42191;47.562;9.686;2023-02-26T16:24:45;36.20;;;34.10;;
56285;SDS011;42191;47.562;9.686;2023-02-26T16:27:16;36.58;;;34.42;;
56285;SDS011;42191;47.562;9.686;2023-02-26T16:29:46;37.72;;;35.53;;
56285;SDS011;42191;47.562;9.686;2023-02-26T16:32:16;37.83;;;35.58;;
56285;SDS011;42191;47.562;9.686;2023-02-26T16:34:48;39.13;;;36.83;;
56285;SDS011;42191;47.562;9.686;2023-02-26T16:40:15;37.03;;;34.83;;
56285;SDS011;42191;47.562;9.686;2023-02-26T16:45:58;38.85;;;36.55;;
56285;SDS011;42191;47.562;9.686;2023-02-26T16:48:27;37.92;;;35.72;;
56285;SDS011;42191;47.562;9.686;2023-02-26T16:51:15;37.88;;;35.58;;
56285;SDS011;42191;47.562;9.686;2023-02-26T16:53:49;40.13;;;37.72;;
56285;SDS011;42191;47.562;9.686;2023-02-26T16:56:27;38.03;;;35.83;;
56285;SDS011;42191;47.562;9.686;2023-02-26T16:59:19;37.72;;;35.53;;
56285;SDS011;42191;47.562;9.686;2023-02-26T17:01:59;37.70;;;35.50;;
56285;SDS011;42191;47.562;9.686;2023-02-26T17:04:37;40.45;;;38.05;;
56285;SDS011;42191;47.562;9.686;2023-02-26T17:07:04;39.80;;;37.40;;
56285;SDS011;42191;47.562;9.686;2023-02-26T17:09:44;41.40;;;38.83;;
56285;SDS011;42191;47.562;9.686;2023-02-26T17:12:15;39.95;;;37.55;;
56285;SDS011;42191;47.562;9.686;2023-02-26T17:14:46;39.28;;;36.97;;
56285;SDS011;42191;47.562;9.686;2023-02-26T17:17:21;40.85;;;38.35;;
56285;SDS011;42191;47.562;9.686;2023-02-26T17:19:48;38.22;;;35.92;;
56285;SDS011;42191;47.562;9.686;2023-02-26T17:22:16;42.25;;;39.70;;
56285;SDS011;42191;47.562;9.686;2023-02-26T17:24:48;39.38;;;36.95;;
56285;SDS011;42191;47.562;9.686;2023-02-26T17:27:17;40.72;;;38.22;;
56285;SDS011;42191;47.562;9.686;2023-02-26T17:29:53;41.13;;;38.63;;
56285;SDS011;42191;47.562;9.686;2023-02-26T17:32:23;39.92;;;37.42;;
56285;SDS011;42191;47.562;9.686;2023-02-26T17:34:55;39.63;;;37.22;;
56285;SDS011;42191;47.562;9.686;2023-02-26T17:37:21;43.03;;;40.40;;
56285;SDS011;42191;47.562;9.686;2023-02-26T17:39:49;41.50;;;38.95;;
56285;SDS011;42191;47.562;9.686;2023-02-26T17:42:16;39.70;;;37.30;;
56285;SDS011;42191;47.562;9.686;2023-02-26T17:44:45;42.03;;;39.42;;
56285;SDS011;42191;47.562;9.686;2023-02-26T17:47:13;42.75;;;40.03;;
56285;SDS011;42191;47.562;9.686;2023-02-26T17:49:43;42.88;;;39.67;;
56285;SDS011;42191;47.562;9.686;2023-02-26T17:52:11;41.28;;;38.40;;
56285;SDS011;42191;47.562;9.686;2023-02-26T17:54:41;40.78;;;38.03;;